Time;durP1;ratioP1;P1;durP2;ratioP2;P2;SDS_P1;SDS_P2;PMS_P1;PMS_P2;Temp;Humidity;BMP_temperature;BMP_pressure;BME280_temperature;BME280_humidity;BME280_pressure;Samples;Min_cycle;Max_cycle;Signal;HPM_P1;HPM_P2
2022/06/04 00:02:24;;;;;;;1.23;1.17;;;20.90;99.90;;;;;;5240776;28;20032;-81
2022/06/04 00:05:00;;;;;;;0.90;0.90;;;20.90;99.90;;;;;;5231602;28;20051;-76
2022/06/04 00:07:33;;;;;;;1.13;0.88;;;20.90;99.90;;;;;;5242990;28;20021;-76
2022/06/04 00:16:00;;;;;;;0.95;0.80;;;20.80;99.90;;;;;;5251431;28;20016;-80
2022/06/04 00:18:35;;;;;;;1.70;1.00;;;20.70;99.90;;;;;;5233628;28;20036;-79
2022/06/04 00:21:10;;;;;;;1.42;1.00;;;20.70;99.90;;;;;;5251202;28;20030;-76
2022/06/04 00:23:42;;;;;;;1.25;1.10;;;20.60;99.90;;;;;;5236472;28;20040;-80
2022/06/04 00:26:16;;;;;;;2.08;1.08;;;20.60;99.90;;;;;;5232585;28;20221;-77
2022/06/04 00:28:50;;;;;;;2.72;1.30;;;20.60;99.90;;;;;;5217486;28;20040;-79
2022/06/04 00:31:24;;;;;;;1.58;1.25;;;20.60;99.90;;;;;;5199208;28;20037;-82
2022/06/04 00:33:56;;;;;;;1.33;1.23;;;20.60;99.90;;;;;;5212472;28;20511;-79
2022/06/04 00:36:27;;;;;;;1.45;1.20;;;20.50;99.90;;;;;;5228723;28;20050;-80
2022/06/04 00:38:59;;;;;;;1.05;1.00;;;20.40;99.90;;;;;;5244650;28;20028;-80
2022/06/04 00:42:13;;;;;;;1.33;1.17;;;20.40;99.90;;;;;;5267520;28;20176;-79
2022/06/04 00:45:21;;;;;;;1.10;1.00;;;20.40;99.90;;;;;;5232784;28;20032;-79
2022/06/04 00:47:52;;;;;;;1.25;1.15;;;20.40;99.90;;;;;;5248810;28;20035;-80
2022/06/04 00:50:24;;;;;;;1.40;1.30;;;20.30;99.90;;;;;;5250261;28;20529;-82
2022/06/04 00:52:58;;;;;;;1.17;1.08;;;20.20;99.90;;;;;;5235576;28;20079;-78
2022/06/04 00:55:47;;;;;;;1.35;1.25;;;20.20;99.90;;;;;;5240565;28;20211;-73
2022/06/04 00:58:29;;;;;;;1.15;1.05;;;20.20;99.90;;;;;;5233450;28;20016;-80
2022/06/04 01:01:17;;;;;;;2.17;1.25;;;20.20;99.90;;;;;;5224904;28;20047;-81
2022/06/04 01:04:47;;;;;;;1.40;1.13;;;20.20;99.90;;;;;;5231248;28;20021;-78
2022/06/04 01:07:41;;;;;;;1.27;1.10;;;20.20;99.90;;;;;;5218628;28;20049;-76
2022/06/04 01:10:27;;;;;;;1.48;1.25;;;20.30;99.90;;;;;;5269310;28;20028;-78
2022/06/04 01:13:25;;;;;;;1.67;1.17;;;20.30;99.90;;;;;;5273681;28;20195;-77
2022/06/04 01:19:37;;;;;;;1.52;1.30;;;20.20;99.90;;;;;;5254775;28;20024;-79
2022/06/04 01:22:29;;;;;;;1.15;1.05;;;20.20;99.90;;;;;;5272740;28;20030;-78
2022/06/04 01:25:40;;;;;;;1.13;1.00;;;20.10;99.90;;;;;;5272755;28;20023;-80
2022/06/04 01:28:21;;;;;;;2.65;1.25;;;20.00;99.90;;;;;;5273019;28;20026;-77
2022/06/04 01:30:57;;;;;;;1.85;1.00;;;20.00;99.90;;;;;;5238157;28;20362;-76
2022/06/04 01:33:38;;;;;;;0.90;0.90;;;19.90;99.90;;;;;;5251722;28;20325;-77
2022/06/04 01:36:32;;;;;;;1.52;1.02;;;19.90;99.90;;;;;;5233062;28;20449;-81
2022/06/04 01:39:14;;;;;;;0.80;0.80;;;19.80;99.90;;;;;;5229892;28;20032;-76
2022/06/04 01:41:58;;;;;;;0.63;0.63;;;19.70;99.90;;;;;;5230468;28;20017;-74
2022/06/04 01:44:42;;;;;;;0.77;0.77;;;19.80;99.90;;;;;;5228139;28;20028;-76
2022/06/04 01:47:21;;;;;;;0.85;0.85;;;19.80;99.90;;;;;;5234116;28;20031;-75
2022/06/04 01:49:54;;;;;;;0.82;0.82;;;19.70;99.90;;;;;;5233604;28;20034;-77
2022/06/04 01:52:48;;;;;;;1.15;0.63;;;19.70;99.90;;;;;;5242506;28;20025;-78
2022/06/04 01:55:27;;;;;;;3.25;1.17;;;19.70;99.90;;;;;;5230693;28;20043;-78
2022/06/04 01:58:03;;;;;;;1.15;1.00;;;19.70;99.90;;;;;;5235333;28;20032;-77
2022/06/04 02:00:40;;;;;;;0.80;0.80;;;19.70;99.90;;;;;;5231360;28;20038;-75
2022/06/04 02:03:29;;;;;;;2.63;1.00;;;19.80;99.90;;;;;;5251603;28;20027;-78
2022/06/04 02:06:07;;;;;;;1.10;1.00;;;19.80;99.90;;;;;;5251557;28;20020;-74
2022/06/04 02:08:49;;;;;;;0.80;0.57;;;19.80;99.90;;;;;;5249062;28;20526;-76
2022/06/04 02:11:22;;;;;;;1.17;1.08;;;19.80;99.90;;;;;;5251061;28;20468;-77
2022/06/04 02:13:58;;;;;;;1.10;1.00;;;19.80;99.90;;;;;;5251609;28;20064;-74
2022/06/04 02:16:52;;;;;;;1.25;1.15;;;19.70;99.90;;;;;;5251314;28;20034;-74
2022/06/04 02:19:26;;;;;;;1.10;1.00;;;19.60;99.90;;;;;;5250752;28;20028;-76
2022/06/04 02:21:58;;;;;;;0.82;0.80;;;19.60;99.90;;;;;;5251352;28;20029;-77
2022/06/04 02:24:35;;;;;;;1.30;1.20;;;19.50;99.90;;;;;;5251125;28;20024;-79
2022/06/04 02:27:08;;;;;;;0.70;0.70;;;19.40;99.90;;;;;;5255603;28;20024;-75
2022/06/04 02:29:42;;;;;;;2.95;1.27;;;19.50;99.90;;;;;;5229053;28;20415;-78
2022/06/04 02:32:30;;;;;;;1.10;0.98;;;19.50;99.90;;;;;;5213094;28;20031;-79
2022/06/04 02:35:09;;;;;;;2.00;1.10;;;19.50;99.90;;;;;;5229897;28;20047;-77
2022/06/04 02:37:48;;;;;;;0.93;0.93;;;19.50;99.90;;;;;;5231529;28;20032;-78
2022/06/04 02:40:34;;;;;;;1.20;1.10;;;19.50;99.90;;;;;;5249804;28;20229;-82
2022/06/04 02:43:08;;;;;;;1.45;1.00;;;19.50;99.90;;;;;;5250934;28;20017;-76
2022/06/04 02:45:45;;;;;;;1.10;1.00;;;19.50;99.90;;;;;;5232236;28;20040;-78
2022/06/04 02:48:32;;;;;;;0.80;0.80;;;19.60;99.90;;;;;;5250304;28;20024;-77
2022/06/04 02:51:12;;;;;;;7.43;1.02;;;19.70;99.90;;;;;;5212653;28;20027;-75
2022/06/04 02:53:46;;;;;;;1.27;1.10;;;19.60;99.90;;;;;;5212423;28;20041;-80
2022/06/04 02:56:31;;;;;;;1.20;1.10;;;19.60;99.90;;;;;;5215923;28;20039;-79
2022/06/04 02:59:08;;;;;;;1.15;1.10;;;19.50;99.90;;;;;;5228484;28;20036;-77
2022/06/04 03:01:42;;;;;;;1.27;1.17;;;19.50;99.90;;;;;;5229240;28;20017;-76
2022/06/04 03:04:16;;;;;;;1.10;1.00;;;19.50;99.90;;;;;;5202212;28;20037;-80
2022/06/04 03:06:48;;;;;;;1.30;1.20;;;19.50;99.90;;;;;;5243556;28;20023;-77
2022/06/04 03:09:23;;;;;;;1.45;1.35;;;19.50;99.90;;;;;;5239073;28;20021;-76
2022/06/04 03:11:54;;;;;;;;;;;19.60;99.90;;;;;;5230385;28;20019;-75
2022/06/04 03:14:25;;;;;;;1.40;1.30;;;19.60;99.90;;;;;;5215627;28;20181;-76
2022/06/04 03:16:56;;;;;;;1.17;1.08;;;19.70;99.90;;;;;;5233027;28;20046;-79
2022/06/04 03:19:28;;;;;;;0.80;0.77;;;19.70;99.90;;;;;;5216670;28;20047;-76
2022/06/04 03:22:02;;;;;;;1.50;1.10;;;19.80;99.90;;;;;;5234801;28;20031;-78
2022/06/04 03:24:36;;;;;;;1.60;1.50;;;19.90;99.90;;;;;;5216460;28;20025;-77
2022/06/04 03:27:09;;;;;;;3.38;1.38;;;19.90;99.90;;;;;;5249304;28;20937;-73
2022/06/04 03:29:47;;;;;;;1.55;1.45;;;20.00;99.90;;;;;;5273180;28;20477;-77
2022/06/04 03:32:18;;;;;;;1.50;1.40;;;20.00;99.90;;;;;;5275374;28;20016;-77
2022/06/04 03:34:52;;;;;;;1.52;1.42;;;20.00;99.90;;;;;;5264440;28;20020;-74
2022/06/04 03:37:28;;;;;;;1.47;1.37;;;20.00;99.90;;;;;;5252751;28;20442;-79
2022/06/04 03:39:59;;;;;;;1.48;1.15;;;20.00;99.90;;;;;;5253661;28;20046;-79
2022/06/04 03:42:34;;;;;;;3.33;1.75;;;20.00;99.90;;;;;;5236419;28;20050;-75
2022/06/04 03:45:09;;;;;;;1.60;1.00;;;20.00;99.90;;;;;;5231063;28;20040;-73
2022/06/04 03:47:41;;;;;;;2.10;1.27;;;20.00;99.90;;;;;;5199557;28;20041;-75
2022/06/04 03:50:20;;;;;;;1.55;1.10;;;20.00;99.90;;;;;;5211000;28;20040;-77
2022/06/04 03:52:55;;;;;;;1.85;1.17;;;20.10;99.90;;;;;;5226676;28;20026;-76
2022/06/04 03:55:31;;;;;;;1.48;1.35;;;20.10;99.90;;;;;;5219405;28;20167;-78
2022/06/04 03:58:03;;;;;;;1.40;1.27;;;20.10;99.90;;;;;;5208931;28;20043;-80
2022/06/04 04:00:40;;;;;;;1.02;0.93;;;20.20;99.90;;;;;;5218200;28;20029;-76
2022/06/04 04:03:17;;;;;;;2.10;1.15;;;20.30;99.90;;;;;;5188264;28;20047;-76
2022/06/04 04:05:51;;;;;;;1.33;1.23;;;20.40;99.90;;;;;;5186832;28;20370;-80
2022/06/04 04:08:25;;;;;;;1.10;1.00;;;20.50;99.90;;;;;;5205344;28;20024;-76
2022/06/04 04:10:56;;;;;;;;;;;20.50;99.90;;;;;;5235904;28;20028;-77
2022/06/04 04:13:27;;;;;;;1.45;1.10;;;20.60;99.90;;;;;;5230614;28;19922;-79
2022/06/04 04:16:02;;;;;;;2.05;1.00;;;20.70;99.90;;;;;;5224205;28;20071;-77
2022/06/04 04:18:36;;;;;;;1.27;0.95;;;20.70;99.90;;;;;;5252905;28;20306;-81
2022/06/04 04:21:20;;;;;;;1.90;1.10;;;20.80;99.90;;;;;;5253529;28;20046;-76
2022/06/04 04:23:52;;;;;;;1.05;0.98;;;20.90;99.90;;;;;;5253128;28;20039;-77
2022/06/04 04:26:31;;;;;;;0.73;0.73;;;21.20;99.90;;;;;;5249537;28;20048;-78
2022/06/04 04:29:08;;;;;;;1.10;1.00;;;21.20;99.90;;;;;;5259369;28;20306;-78
2022/06/04 04:31:45;;;;;;;1.77;1.20;;;21.10;99.90;;;;;;5242021;28;20379;-76
2022/06/04 04:34:17;;;;;;;0.98;0.98;;;21.30;99.90;;;;;;5250046;28;20035;-80
2022/06/04 04:36:48;;;;;;;0.80;0.80;;;21.40;99.90;;;;;;5250826;28;20028;-77
2022/06/04 04:39:19;;;;;;;1.55;1.00;;;21.60;99.90;;;;;;5252699;28;20024;-81
2022/06/04 04:41:50;;;;;;;1.33;1.17;;;21.60;99.90;;;;;;5252606;28;20024;-77
2022/06/04 04:44:22;;;;;;;0.75;0.75;;;21.50;99.90;;;;;;5251277;28;20037;-79
2022/06/04 04:46:53;;;;;;;1.23;1.13;;;21.50;99.90;;;;;;5232686;28;20029;-78
2022/06/04 04:49:27;;;;;;;0.73;0.73;;;21.30;99.90;;;;;;5235203;28;20024;-78
2022/06/04 04:52:08;;;;;;;0.68;0.68;;;21.40;99.90;;;;;;5218048;28;20066;-76
2022/06/04 04:54:39;;;;;;;0.95;0.90;;;21.40;99.90;;;;;;5252595;28;20038;-79
2022/06/04 04:57:13;;;;;;;2.10;0.98;;;21.60;99.90;;;;;;5234519;28;20355;-76
2022/06/04 04:59:47;;;;;;;0.85;0.85;;;21.80;99.90;;;;;;5234908;28;20047;-78
2022/06/04 05:02:20;;;;;;;0.70;0.70;;;22.00;99.90;;;;;;5232276;28;20024;-79
2022/06/04 05:04:54;;;;;;;0.70;0.70;;;22.10;99.90;;;;;;5194389;28;20423;-79
2022/06/04 05:07:26;;;;;;;0.70;0.70;;;22.10;99.90;;;;;;5223670;28;20025;-75
2022/06/04 05:10:02;;;;;;;0.60;0.60;;;22.20;99.90;;;;;;5218016;28;20043;-80
2022/06/04 05:12:36;;;;;;;0.85;0.70;;;22.40;99.90;;;;;;5214025;28;20558;-77
2022/06/04 05:15:09;;;;;;;0.65;0.60;;;22.50;99.90;;;;;;5246402;28;20054;-79
2022/06/04 05:17:41;;;;;;;0.60;0.60;;;22.60;99.90;;;;;;5252470;28;20440;-80
2022/06/04 05:20:15;;;;;;;0.60;0.60;;;22.60;99.90;;;;;;5242108;28;20034;-77
2022/06/04 05:22:46;;;;;;;;;;;22.70;99.90;;;;;;5251128;28;20040;-77
2022/06/04 05:25:21;;;;;;;1.10;1.00;;;22.90;99.90;;;;;;5251807;28;19900;-78
2022/06/04 05:27:58;;;;;;;0.85;0.70;;;22.80;99.90;;;;;;5251532;28;20034;-77
2022/06/04 05:30:31;;;;;;;1.33;1.13;;;22.80;99.90;;;;;;5239663;28;20039;-80
2022/06/04 05:33:08;;;;;;;1.13;1.00;;;22.80;99.90;;;;;;5257828;28;20030;-78
2022/06/04 05:35:42;;;;;;;0.98;0.80;;;23.10;99.90;;;;;;5254317;28;20069;-77
2022/06/04 05:38:13;;;;;;;0.93;0.93;;;23.10;99.90;;;;;;5270562;28;20030;-77
2022/06/04 05:40:45;;;;;;;1.25;0.60;;;23.30;99.90;;;;;;5251518;28;20021;-80
2022/06/04 05:43:19;;;;;;;0.70;0.70;;;23.20;99.90;;;;;;5231595;28;20027;-78
2022/06/04 05:46:01;;;;;;;0.70;0.70;;;23.10;99.90;;;;;;5256893;28;20599;-79
2022/06/04 05:48:35;;;;;;;1.20;0.52;;;23.40;99.90;;;;;;5243817;28;20028;-80
2022/06/04 05:51:12;;;;;;;1.05;0.68;;;23.90;99.90;;;;;;5226719;28;20035;-82
2022/06/04 05:53:48;;;;;;;0.95;0.70;;;24.00;99.90;;;;;;5248711;28;20029;-80
2022/06/04 05:56:26;;;;;;;0.80;0.80;;;23.60;99.90;;;;;;5251855;28;20051;-78
2022/06/04 05:59:00;;;;;;;0.63;0.63;;;23.40;99.90;;;;;;5238022;28;20383;-76
2022/06/04 06:01:35;;;;;;;3.13;0.90;;;23.10;99.90;;;;;;5241606;28;20457;-81
2022/06/04 06:04:08;;;;;;;0.50;0.50;;;23.00;99.90;;;;;;5245712;28;20035;-79
2022/06/04 06:06:46;;;;;;;0.80;0.80;;;23.00;99.90;;;;;;5228863;28;20040;-81
2022/06/04 06:09:21;;;;;;;0.80;0.80;;;23.50;99.90;;;;;;5258289;28;20030;-81
2022/06/04 06:11:53;;;;;;;0.60;0.60;;;23.80;99.90;;;;;;5232565;28;20036;-79
2022/06/04 06:14:25;;;;;;;1.40;0.73;;;24.00;99.90;;;;;;5245823;28;20111;-82
2022/06/04 06:16:59;;;;;;;0.68;0.63;;;23.70;99.90;;;;;;5255369;28;20229;-80
2022/06/04 06:19:30;;;;;;;0.60;0.60;;;23.50;99.90;;;;;;5229369;28;20034;-81
2022/06/04 06:22:02;;;;;;;1.42;0.65;;;23.90;99.90;;;;;;5225008;28;20419;-82
2022/06/04 06:24:33;;;;;;;0.80;0.80;;;24.20;99.90;;;;;;5226397;28;20040;-80
2022/06/04 06:27:08;;;;;;;0.50;0.50;;;24.50;99.90;;;;;;5246646;28;20054;-82
2022/06/04 06:29:39;;;;;;;2.70;0.70;;;24.70;99.90;;;;;;5237551;28;20039;-83
2022/06/04 06:32:10;;;;;;;1.17;0.60;;;24.90;99.90;;;;;;5218558;28;20032;-80
2022/06/04 06:34:42;;;;;;;0.93;0.80;;;25.20;99.90;;;;;;5232999;28;21113;-85
2022/06/04 06:37:13;;;;;;;0.60;0.60;;;25.30;99.90;;;;;;5247106;28;20562;-81
2022/06/04 06:39:47;;;;;;;1.25;0.70;;;24.40;99.90;;;;;;5234488;28;20028;-80
2022/06/04 06:42:19;;;;;;;0.50;0.50;;;24.10;99.90;;;;;;5228497;28;20436;-83
2022/06/04 06:44:52;;;;;;;1.95;1.00;;;23.70;99.90;;;;;;5212666;28;20041;-79
2022/06/04 06:47:28;;;;;;;5.60;1.15;;;23.40;99.90;;;;;;5223979;28;20032;-77
2022/06/04 06:50:05;;;;;;;1.38;1.23;;;23.20;99.90;;;;;;5233089;28;20034;-82
2022/06/04 06:52:40;;;;;;;3.20;1.42;;;23.20;99.90;;;;;;5232061;28;20036;-78
2022/06/04 06:55:13;;;;;;;1.15;1.02;;;23.10;99.90;;;;;;5236890;28;20029;-80
2022/06/04 06:57:49;;;;;;;0.93;0.60;;;23.10;99.90;;;;;;5231288;28;20047;-80
2022/06/04 07:00:21;;;;;;;1.38;0.77;;;23.00;99.90;;;;;;5231741;28;20404;-82
2022/06/04 07:02:52;;;;;;;0.68;0.65;;;23.00;99.90;;;;;;5226913;28;20066;-79
2022/06/04 07:05:23;;;;;;;0.60;0.60;;;23.00;99.90;;;;;;5216874;28;20044;-80
2022/06/04 07:07:57;;;;;;;1.75;0.70;;;23.10;99.90;;;;;;5223219;28;20027;-75
2022/06/04 07:10:31;;;;;;;1.65;1.30;;;23.60;99.90;;;;;;5235552;28;20051;-74
2022/06/04 07:13:05;;;;;;;0.77;0.77;;;23.80;99.90;;;;;;5244643;28;20034;-76
2022/06/04 07:15:36;;;;;;;0.80;0.80;;;24.10;99.90;;;;;;5246002;28;20024;-78
2022/06/04 07:18:11;;;;;;;0.95;0.88;;;24.20;99.90;;;;;;5229125;28;20043;-77
2022/06/04 07:20:42;;;;;;;;;;;24.20;99.90;;;;;;5229119;28;20457;-81
2022/06/04 07:23:13;;;;;;;0.82;0.82;;;24.10;99.90;;;;;;5232198;28;19913;-80
2022/06/04 07:25:46;;;;;;;2.08;0.90;;;24.20;99.90;;;;;;5218674;28;20036;-81
2022/06/04 07:28:17;;;;;;;2.25;0.93;;;24.20;99.90;;;;;;5249225;28;20027;-76
2022/06/04 07:30:49;;;;;;;0.60;0.60;;;24.20;99.90;;;;;;5248140;28;20030;-80
2022/06/04 07:33:22;;;;;;;0.60;0.60;;;24.30;99.90;;;;;;5223695;28;20032;-79
2022/06/04 07:35:54;;;;;;;;;;;24.40;99.90;;;;;;5242581;28;20047;-81
2022/06/04 07:38:26;;;;;;;0.77;0.77;;;24.30;99.90;;;;;;5233934;28;19914;-78
2022/06/04 07:41:00;;;;;;;1.10;1.00;;;24.30;99.90;;;;;;5257537;28;20040;-81
2022/06/04 07:43:35;;;;;;;2.83;1.33;;;24.50;99.90;;;;;;5228879;28;20054;-81
2022/06/04 07:46:11;;;;;;;1.73;0.88;;;25.00;99.90;;;;;;5223288;28;20029;-81
2022/06/04 07:48:46;;;;;;;1.30;1.08;;;25.30;99.90;;;;;;5247209;28;20348;-83
2022/06/04 07:51:17;;;;;;;1.25;0.80;;;25.60;99.90;;;;;;5237760;28;20413;-79
2022/06/04 07:53:50;;;;;;;0.73;0.73;;;26.00;99.90;;;;;;5225189;28;20028;-80
2022/06/04 07:56:21;;;;;;;1.15;0.90;;;26.10;99.90;;;;;;5249512;28;20329;-77
2022/06/04 07:58:52;;;;;;;1.08;0.98;;;25.50;99.90;;;;;;5235982;28;20038;-80
2022/06/04 08:01:24;;;;;;;1.55;1.10;;;25.50;99.90;;;;;;5255155;28;20506;-82
2022/06/04 08:03:56;;;;;;;2.00;0.95;;;25.40;99.90;;;;;;5254266;28;20187;-84
2022/06/04 08:06:31;;;;;;;0.90;0.90;;;25.50;99.90;;;;;;5244263;28;20040;-78
2022/06/04 08:09:05;;;;;;;1.65;0.77;;;25.40;99.90;;;;;;5245455;28;20017;-81
2022/06/04 08:11:36;;;;;;;1.10;1.00;;;25.20;99.90;;;;;;5249955;28;20047;-79
2022/06/04 08:14:13;;;;;;;0.98;0.90;;;25.30;99.90;;;;;;5235384;28;20537;-81
2022/06/04 08:16:52;;;;;;;0.90;0.77;;;25.10;99.90;;;;;;5229638;28;20023;-80
2022/06/04 08:19:27;;;;;;;1.17;1.10;;;24.90;99.90;;;;;;5235588;28;20033;-78
2022/06/04 08:22:03;;;;;;;1.13;0.80;;;24.80;99.90;;;;;;5232471;28;20039;-80
2022/06/04 08:24:35;;;;;;;1.73;1.00;;;24.90;99.90;;;;;;5244830;28;20477;-75
2022/06/04 08:27:06;;;;;;;1.50;1.40;;;25.10;99.90;;;;;;5252879;28;20047;-80
2022/06/04 08:29:40;;;;;;;1.15;0.90;;;25.30;99.90;;;;;;5235068;28;20375;-81
2022/06/04 08:32:16;;;;;;;0.85;0.80;;;25.60;99.90;;;;;;5230074;28;20025;-79
2022/06/04 08:34:52;;;;;;;1.15;1.05;;;25.30;99.90;;;;;;5217210;28;20036;-75
2022/06/04 08:37:28;;;;;;;0.70;0.70;;;25.10;99.90;;;;;;5219359;28;20033;-79
2022/06/04 08:40:02;;;;;;;2.25;0.90;;;25.20;99.90;;;;;;5230739;28;20036;-78
2022/06/04 08:42:36;;;;;;;1.45;0.73;;;25.60;99.90;;;;;;5250531;28;20024;-79
2022/06/04 08:45:10;;;;;;;0.77;0.77;;;25.60;99.90;;;;;;5231796;28;20029;-78
2022/06/04 08:47:49;;;;;;;0.73;0.73;;;25.80;99.90;;;;;;5227539;28;20021;-78
2022/06/04 08:50:24;;;;;;;3.35;1.00;;;25.70;99.90;;;;;;5253077;28;20028;-77
2022/06/04 08:53:12;;;;;;;1.73;0.77;;;25.50;99.90;;;;;;5251053;28;20422;-77
2022/06/04 08:58:56;;;;;;;1.05;0.80;;;26.10;99.90;;;;;;5235794;28;20016;-77
2022/06/04 09:01:36;;;;;;;1.42;0.70;;;26.20;99.90;;;;;;5255575;28;20205;-77
2022/06/04 09:04:27;;;;;;;0.57;0.57;;;26.20;99.90;;;;;;5214108;28;20051;-79
2022/06/04 09:07:10;;;;;;;0.57;0.57;;;26.60;99.90;;;;;;5204118;28;20061;-77
2022/06/04 09:10:19;;;;;;;2.95;0.70;;;26.90;99.90;;;;;;5260489;28;20020;-79
2022/06/04 09:13:16;;;;;;;1.42;0.98;;;27.30;99.90;;;;;;5262446;28;20019;-79
2022/06/04 09:15:56;;;;;;;2.75;0.80;;;27.40;99.90;;;;;;5251106;28;20477;-74
2022/06/04 09:18:37;;;;;;;1.50;0.85;;;27.50;99.90;;;;;;5252000;28;20024;-79
2022/06/04 09:21:12;;;;;;;0.68;0.68;;;27.20;99.90;;;;;;5251094;28;20202;-78
2022/06/04 09:23:47;;;;;;;0.60;0.60;;;27.30;99.90;;;;;;5243450;28;20021;-80
2022/06/04 09:26:25;;;;;;;1.35;0.82;;;27.50;99.90;;;;;;5231527;28;20023;-81
2022/06/04 09:29:23;;;;;;;1.17;1.08;;;27.50;99.90;;;;;;5231656;28;20017;-78
2022/06/04 09:32:44;;;;;;;0.57;0.57;;;27.70;99.90;;;;;;5232362;28;20020;-77
2022/06/04 09:35:29;;;;;;;0.75;0.68;;;28.10;99.90;;;;;;5225785;28;20363;-81
2022/06/04 09:38:03;;;;;;;1.30;0.65;;;28.60;99.90;;;;;;5231253;28;20033;-80
2022/06/04 09:40:35;;;;;;;0.73;0.70;;;28.90;99.90;;;;;;5231180;28;20025;-78
2022/06/04 09:43:17;;;;;;;0.52;0.52;;;29.10;99.90;;;;;;5220459;28;20031;-80
2022/06/04 09:46:05;;;;;;;1.30;0.77;;;29.50;99.90;;;;;;5230737;28;20047;-78
2022/06/04 09:48:44;;;;;;;0.50;0.50;;;29.30;99.90;;;;;;5233087;28;20036;-79
2022/06/04 09:51:37;;;;;;;0.73;0.60;;;29.60;99.90;;;;;;5250812;28;20030;-79
2022/06/04 09:54:34;;;;;;;0.65;0.65;;;30.00;99.90;;;;;;5250096;28;20042;-79
2022/06/04 09:57:08;;;;;;;0.60;0.60;;;30.10;99.90;;;;;;5265790;28;20022;-77
2022/06/04 09:59:39;;;;;;;2.65;0.70;;;30.00;99.90;;;;;;5237923;28;20040;-80
2022/06/04 10:02:10;;;;;;;0.70;0.70;;;30.10;99.90;;;;;;5250364;28;20028;-78
2022/06/04 10:04:58;;;;;;;0.50;0.50;;;29.70;99.90;;;;;;5241564;28;20090;-80
2022/06/04 10:07:35;;;;;;;1.02;0.85;;;29.30;99.90;;;;;;5251460;28;20021;-77
2022/06/04 10:10:24;;;;;;;2.40;1.10;;;29.80;99.90;;;;;;5234597;28;20028;-78
2022/06/04 10:15:49;;;;;;;0.63;0.63;;;30.00;99.90;;;;;;5252068;28;20058;-79
2022/06/04 10:18:32;;;;;;;0.85;0.70;;;30.20;99.90;;;;;;5251006;28;20017;-77
2022/06/04 10:21:20;;;;;;;0.52;0.52;;;30.80;99.90;;;;;;5219785;28;20027;-81
2022/06/04 10:23:57;;;;;;;1.05;0.70;;;30.30;99.90;;;;;;5251655;28;20026;-77
2022/06/04 10:26:38;;;;;;;0.50;0.50;;;30.10;99.90;;;;;;5251614;28;20050;-82
2022/06/04 10:29:36;;;;;;;0.80;0.80;;;30.60;99.90;;;;;;5251191;28;20020;-82
2022/06/04 10:32:18;;;;;;;0.55;0.55;;;30.00;99.90;;;;;;5219372;28;20051;-78
2022/06/04 10:35:02;;;;;;;1.33;0.55;;;30.70;99.90;;;;;;5238946;28;20025;-76
2022/06/04 10:37:37;;;;;;;0.97;0.50;;;31.00;99.90;;;;;;5267637;28;20030;-82
2022/06/04 10:40:32;;;;;;;1.15;0.60;;;31.00;99.90;;;;;;5256087;28;20016;-79
2022/06/04 10:43:40;;;;;;;1.80;0.70;;;31.00;99.90;;;;;;5229693;28;20033;-76
2022/06/04 10:46:36;;;;;;;0.63;0.63;;;30.80;99.90;;;;;;5263643;28;20033;-77
2022/06/04 10:49:23;;;;;;;0.65;0.65;;;31.50;99.90;;;;;;5227828;28;20046;-77
2022/06/04 10:52:18;;;;;;;1.00;0.65;;;31.90;99.90;;;;;;5230824;28;20870;-78
2022/06/04 10:55:19;;;;;;;1.50;0.70;;;32.60;99.90;;;;;;5230386;28;20027;-81
2022/06/04 10:58:11;;;;;;;1.38;0.75;;;31.60;99.90;;;;;;5237635;28;20008;-79
2022/06/04 11:00:56;;;;;;;0.73;0.73;;;32.40;99.90;;;;;;5233022;28;20024;-78
2022/06/04 11:04:00;;;;;;;1.40;1.00;;;33.70;99.90;;;;;;5246916;28;20031;-78
2022/06/04 11:06:40;;;;;;;1.08;0.98;;;32.70;99.90;;;;;;5231662;28;20215;-81
2022/06/04 11:09:43;;;;;;;0.70;0.70;;;33.70;99.90;;;;;;5239941;28;20218;-80
2022/06/04 11:12:30;;;;;;;0.70;0.70;;;35.30;99.90;;;;;;5246776;28;20255;-80
2022/06/04 11:15:35;;;;;;;0.73;0.73;;;36.10;99.90;;;;;;5248966;28;20035;-79
2022/06/04 11:18:36;;;;;;;0.70;0.70;;;35.80;99.90;;;;;;5237481;28;20039;-77
2022/06/04 11:21:35;;;;;;;0.80;0.80;;;35.90;99.90;;;;;;5217315;28;20048;-80
2022/06/04 11:24:17;;;;;;;0.90;0.90;;;35.20;99.90;;;;;;5224538;28;20025;-79
2022/06/04 11:27:17;;;;;;;0.88;0.88;;;36.10;99.90;;;;;;5250811;28;20032;-81
2022/06/04 11:29:51;;;;;;;0.82;0.80;;;36.90;99.90;;;;;;5234317;28;20025;-78
2022/06/04 11:32:32;;;;;;;1.20;1.10;;;36.90;99.90;;;;;;5252502;28;20021;-77
2022/06/04 11:35:28;;;;;;;1.23;1.05;;;36.70;99.90;;;;;;5235457;28;20043;-80
2022/06/04 11:38:09;;;;;;;2.25;0.90;;;34.60;99.90;;;;;;5255282;28;20024;-83
2022/06/04 11:40:50;;;;;;;0.63;0.63;;;33.70;99.90;;;;;;5255686;28;20394;-78
2022/06/04 11:43:46;;;;;;;1.15;0.85;;;33.70;99.90;;;;;;5252901;28;20025;-82
2022/06/04 11:46:23;;;;;;;1.00;0.73;;;34.60;99.90;;;;;;5236990;28;20017;-81
2022/06/04 11:49:27;;;;;;;2.50;0.73;;;35.80;99.90;;;;;;5249838;28;20032;-80
2022/06/04 11:52:01;;;;;;;0.80;0.80;;;36.50;99.90;;;;;;5210605;28;20044;-81
2022/06/04 11:54:50;;;;;;;;;;;36.90;99.90;;;;;;5191137;28;20036;-80
2022/06/04 11:57:32;;;;;;;0.90;0.90;;;37.30;99.90;;;;;;5198963;28;19916;-77
2022/06/04 12:00:25;;;;;;;0.80;0.80;;;36.20;99.90;;;;;;5232254;28;20029;-77
2022/06/04 12:03:14;;;;;;;1.27;0.73;;;36.90;99.90;;;;;;5231789;28;20143;-80
2022/06/04 12:05:53;;;;;;;1.13;1.13;;;36.10;99.90;;;;;;5202559;28;20045;-78
2022/06/04 12:08:32;;;;;;;0.82;0.82;;;35.60;99.90;;;;;;5198094;28;20106;-81
2022/06/04 12:11:31;;;;;;;0.90;0.90;;;35.60;99.90;;;;;;5231597;28;20155;-81
2022/06/04 12:14:21;;;;;;;1.00;1.00;;;36.00;99.90;;;;;;5193859;28;20021;-80
2022/06/04 12:17:18;;;;;;;1.10;1.00;;;36.60;99.90;;;;;;5180617;28;20052;-79
2022/06/04 12:25:48;;;;;;;1.27;1.17;;;36.60;99.90;;;;;;5181185;28;20046;-79
2022/06/04 12:28:42;;;;;;;1.20;0.90;;;34.80;99.90;;;;;;5219925;28;20033;-79
2022/06/04 12:31:27;;;;;;;0.90;0.90;;;34.20;99.90;;;;;;5234306;28;20332;-81
2022/06/04 12:33:58;;;;;;;1.05;0.80;;;34.60;99.90;;;;;;5224129;28;20222;-78
2022/06/04 12:36:37;;;;;;;1.55;1.45;;;35.80;99.90;;;;;;5248673;28;20041;-78
2022/06/04 12:39:44;;;;;;;1.13;0.73;;;36.60;99.90;;;;;;5231421;28;20040;-77
2022/06/04 12:42:25;;;;;;;1.08;0.98;;;35.80;99.90;;;;;;5220197;28;20016;-78
2022/06/04 12:45:06;;;;;;;0.93;0.93;;;34.80;99.90;;;;;;5248654;28;20024;-78
2022/06/04 12:47:42;;;;;;;1.05;1.00;;;33.90;99.90;;;;;;5231968;28;20035;-81
2022/06/04 12:50:16;;;;;;;1.70;0.77;;;33.90;99.90;;;;;;5231925;28;20047;-78
2022/06/04 12:53:03;;;;;;;1.20;1.10;;;34.10;99.90;;;;;;5242606;28;20034;-77
2022/06/04 12:55:54;;;;;;;1.23;1.13;;;35.60;99.90;;;;;;5253194;28;20053;-80
2022/06/04 12:58:51;;;;;;;1.20;1.10;;;36.30;99.90;;;;;;5215451;28;20207;-80
2022/06/04 13:01:37;;;;;;;0.70;0.70;;;34.60;99.90;;;;;;5234126;28;20325;-79
2022/06/04 13:04:14;;;;;;;0.98;0.88;;;35.50;99.90;;;;;;5233122;28;20039;-79
2022/06/04 13:07:18;;;;;;;0.98;0.85;;;35.30;99.90;;;;;;5204325;28;20071;-79
2022/06/04 13:10:03;;;;;;;;;;;36.00;99.90;;;;;;5251486;28;20918;-79
2022/06/04 13:12:44;;;;;;;0.90;0.90;;;35.60;99.90;;;;;;5256017;28;19908;-79
2022/06/04 13:15:18;;;;;;;1.05;0.95;;;36.20;99.90;;;;;;5217876;28;20028;-77
2022/06/04 13:17:52;;;;;;;1.20;1.10;;;34.70;99.90;;;;;;5253422;28;20028;-77
2022/06/04 13:20:35;;;;;;;0.80;0.80;;;33.00;99.90;;;;;;5251944;28;20036;-79
2022/06/04 13:23:24;;;;;;;0.80;0.80;;;33.60;99.90;;;;;;5253736;28;20052;-81
2022/06/04 13:26:33;;;;;;;0.80;0.80;;;33.70;99.90;;;;;;5251833;28;20055;-77
2022/06/04 13:29:20;;;;;;;3.10;0.90;;;33.50;99.90;;;;;;5227968;28;20079;-79
2022/06/04 13:31:57;;;;;;;0.75;0.75;;;33.40;99.90;;;;;;5238677;28;20054;-78
2022/06/04 13:34:33;;;;;;;3.03;1.48;;;34.90;99.90;;;;;;5267841;28;20017;-78
2022/06/04 13:37:19;;;;;;;2.42;1.00;;;34.30;99.90;;;;;;5260374;28;20052;-80
2022/06/04 13:40:01;;;;;;;1.17;0.75;;;34.50;99.90;;;;;;5260824;28;20051;-80
2022/06/04 13:42:41;;;;;;;0.80;0.80;;;35.00;99.90;;;;;;5231470;28;20564;-79
2022/06/04 13:45:28;;;;;;;1.42;1.33;;;35.30;99.90;;;;;;5221006;28;20030;-79
2022/06/04 13:48:20;;;;;;;0.95;0.80;;;35.00;99.90;;;;;;5252744;28;20028;-82
2022/06/04 13:50:55;;;;;;;1.17;1.17;;;35.80;99.90;;;;;;5252438;28;20024;-79
2022/06/04 13:53:32;;;;;;;2.22;0.82;;;37.30;99.90;;;;;;5272255;28;20011;-80
2022/06/04 13:56:08;;;;;;;1.00;0.90;;;37.40;99.90;;;;;;5247535;28;20682;-80
2022/06/04 13:58:43;;;;;;;2.38;0.95;;;35.10;99.90;;;;;;5250847;28;20023;-82
2022/06/04 14:01:28;;;;;;;1.15;0.93;;;33.50;99.90;;;;;;5231466;28;20376;-79
2022/06/04 14:07:11;;;;;;;2.65;1.10;;;32.90;99.90;;;;;;5226090;28;19912;-81
2022/06/04 14:09:56;;;;;;;0.98;0.88;;;33.60;99.90;;;;;;5257901;28;20210;-78
2022/06/04 14:12:34;;;;;;;1.10;1.00;;;35.10;99.90;;;;;;5234012;28;20042;-80
2022/06/04 14:15:16;;;;;;;2.58;0.98;;;36.30;99.90;;;;;;5230084;28;20029;-78
2022/06/04 14:18:11;;;;;;;0.90;0.90;;;37.60;99.90;;;;;;5213392;28;20025;-80